createdAt,value
2023-04-11T00:00:30.527Z,10.57
2023-04-11T00:03:00.102Z,8.90
2023-04-11T00:05:28.524Z,14.40
2023-04-11T00:07:54.925Z,10.80
2023-04-11T00:10:21.382Z,11.27
2023-04-11T00:12:47.805Z,8.87
2023-04-11T00:15:16.202Z,10.10
2023-04-11T00:17:45.703Z,11.37
2023-04-11T00:20:13.023Z,10.40
2023-04-11T00:22:39.556Z,9.83
2023-04-11T00:25:07.051Z,9.33
2023-04-11T00:27:33.554Z,10.20
2023-04-11T00:30:00.823Z,10.33
2023-04-11T00:32:27.620Z,8.70
2023-04-11T00:34:54.112Z,11.60
2023-04-11T00:37:23.166Z,13.43
2023-04-11T00:39:50.546Z,12.87
2023-04-11T00:42:17.277Z,11.50
2023-04-11T00:44:43.740Z,10.17
2023-04-11T00:47:10.367Z,11.10
2023-04-11T00:49:37.451Z,18.73
2023-04-11T00:52:05.838Z,12.80
2023-04-11T00:54:33.098Z,11.67
2023-04-11T00:57:04.662Z,13.47
2023-04-11T00:59:32.611Z,19.07
2023-04-11T01:01:59.963Z,18.87
2023-04-11T01:04:26.511Z,15.13
2023-04-11T01:06:58.515Z,12.70
2023-04-11T01:09:28.697Z,14.97
2023-04-11T01:11:56.171Z,14.20
2023-04-11T01:14:24.021Z,21.50
2023-04-11T01:16:50.742Z,20.03
2023-04-11T01:19:21.626Z,24.03
2023-04-11T01:21:50.519Z,21.13
2023-04-11T01:24:16.997Z,20.10
2023-04-11T01:26:43.546Z,14.80
2023-04-11T01:29:10.338Z,19.50
2023-04-11T01:31:36.984Z,19.43
2023-04-11T01:34:04.959Z,19.53
2023-04-11T01:36:32.219Z,23.10
2023-04-11T01:38:58.741Z,22.27
2023-04-11T01:41:26.700Z,17.40
2023-04-11T01:43:53.258Z,20.77
2023-04-11T01:46:19.881Z,18.57
2023-04-11T01:48:46.424Z,23.53
2023-04-11T01:51:12.922Z,14.97
2023-04-11T01:53:39.384Z,20.53
2023-04-11T01:56:06.545Z,27.60
2023-04-11T01:58:33.046Z,21.93
2023-04-11T02:00:59.531Z,15.97
2023-04-11T02:03:26.250Z,21.73
2023-04-11T02:05:52.886Z,23.43
2023-04-11T02:08:19.312Z,26.20
2023-04-11T02:10:45.770Z,20.87
2023-04-11T02:13:12.273Z,26.43
2023-04-11T02:15:38.745Z,27.60
2023-04-11T02:18:05.548Z,29.53
2023-04-11T02:20:32.048Z,23.20
2023-04-11T02:22:58.938Z,20.13
2023-04-11T02:25:25.435Z,24.93
2023-04-11T02:27:51.883Z,23.00
2023-04-11T02:30:18.402Z,27.17
2023-04-11T02:32:46.494Z,23.77
2023-04-11T02:35:13.001Z,42.07
2023-04-11T02:37:39.527Z,22.13
2023-04-11T02:40:06.938Z,24.27
2023-04-11T02:42:33.718Z,25.00
2023-04-11T02:45:00.381Z,25.23
2023-04-11T02:47:26.989Z,27.60
2023-04-11T02:49:53.528Z,23.60
2023-04-11T02:52:20.000Z,24.43
2023-04-11T02:54:46.671Z,30.33
2023-04-11T02:57:13.180Z,31.23
2023-04-11T02:59:39.667Z,26.43
2023-04-11T03:02:06.323Z,29.17
2023-04-11T03:04:32.873Z,25.70
2023-04-11T03:06:59.320Z,26.13
2023-04-11T03:09:26.049Z,27.80
2023-04-11T03:11:52.488Z,30.43
2023-04-11T03:14:18.979Z,20.70
2023-04-11T03:16:45.555Z,23.37
2023-04-11T03:19:12.022Z,25.70
2023-04-11T03:21:38.433Z,31.10
2023-04-11T03:24:05.291Z,26.97
2023-04-11T03:26:32.214Z,30.13
2023-04-11T03:28:59.016Z,30.63
2023-04-11T03:31:25.830Z,28.10
2023-04-11T03:33:52.405Z,30.67
2023-04-11T03:36:18.931Z,28.57
2023-04-11T03:38:45.384Z,23.90
2023-04-11T03:41:11.902Z,20.43
2023-04-11T03:43:38.328Z,28.80
2023-04-11T03:46:05.033Z,27.37
2023-04-11T03:48:31.556Z,31.43
2023-04-11T03:50:58.074Z,26.77
2023-04-11T03:53:24.570Z,36.33
2023-04-11T03:55:52.814Z,29.23
2023-04-11T03:58:19.267Z,29.57
2023-04-11T04:00:46.528Z,25.10
2023-04-11T04:03:13.805Z,37.93
2023-04-11T04:05:41.301Z,29.70
2023-04-11T04:08:07.956Z,32.57
2023-04-11T04:10:34.414Z,25.53
2023-04-11T04:13:00.919Z,29.90
2023-04-11T04:15:27.353Z,25.13
2023-04-11T04:17:53.926Z,30.80
2023-04-11T04:20:20.603Z,32.40
2023-04-11T04:22:47.416Z,23.33
2023-04-11T04:25:15.725Z,25.83
2023-04-11T04:27:44.437Z,31.33
2023-04-11T04:30:15.630Z,28.97
2023-04-11T04:32:44.051Z,21.97
2023-04-11T04:35:11.670Z,32.73
2023-04-11T04:37:39.600Z,30.53
2023-04-11T04:40:12.074Z,27.67
2023-04-11T04:42:41.511Z,39.13
2023-04-11T04:45:09.093Z,24.20
2023-04-11T04:47:37.434Z,27.40
2023-04-11T04:50:04.326Z,36.77
2023-04-11T04:52:30.859Z,26.03
2023-04-11T04:54:58.360Z,29.20
2023-04-11T04:57:33.766Z,25.93
2023-04-11T05:00:00.329Z,27.50
2023-04-11T05:02:27.108Z,27.80
2023-04-11T05:04:54.304Z,25.73
2023-04-11T05:07:20.882Z,24.83
2023-04-11T05:09:47.672Z,23.93
2023-04-11T05:12:16.014Z,24.97
2023-04-11T05:14:42.881Z,32.03
2023-04-11T05:17:09.386Z,24.13
2023-04-11T05:19:36.040Z,25.53
2023-04-11T05:22:02.531Z,29.97
2023-04-11T05:24:28.970Z,33.07
2023-04-11T05:26:56.541Z,29.13
2023-04-11T05:29:23.088Z,26.33
2023-04-11T05:31:49.572Z,27.77
2023-04-11T05:34:16.024Z,29.83
2023-04-11T05:36:42.893Z,25.47
2023-04-11T05:39:09.387Z,18.77
2023-04-11T05:41:35.980Z,32.10
2023-04-11T05:44:02.395Z,28.50
2023-04-11T05:46:29.585Z,27.77
2023-04-11T05:48:57.996Z,30.23
2023-04-11T05:51:24.577Z,28.70
2023-04-11T05:53:51.020Z,25.27
2023-04-11T05:56:17.663Z,33.13
2023-04-11T05:58:44.349Z,33.40
2023-04-11T06:01:18.203Z,30.27
2023-04-11T06:03:48.387Z,25.83
2023-04-11T06:06:15.134Z,31.10
2023-04-11T06:08:41.705Z,31.37
2023-04-11T06:11:08.343Z,27.53
2023-04-11T06:13:34.814Z,24.23
2023-04-11T06:16:01.744Z,35.13
2023-04-11T06:18:28.230Z,27.00
2023-04-11T06:20:54.648Z,27.67
2023-04-11T06:23:21.375Z,35.27
2023-04-11T06:25:47.808Z,25.23
2023-04-11T06:28:14.333Z,24.90
2023-04-11T06:30:41.419Z,30.23
2023-04-11T06:33:07.947Z,28.00
2023-04-11T06:35:34.804Z,23.37
2023-04-11T06:38:01.207Z,24.33
2023-04-11T06:40:27.685Z,21.90
2023-04-11T06:42:55.249Z,20.60
2023-04-11T06:45:21.677Z,31.57
2023-04-11T06:47:49.825Z,29.47
2023-04-11T06:50:16.396Z,19.80
2023-04-11T06:52:42.865Z,22.93
2023-04-11T06:55:10.080Z,29.70
2023-04-11T06:57:36.509Z,23.40
2023-04-11T07:00:06.951Z,26.50
2023-04-11T07:02:35.726Z,24.73
2023-04-11T07:05:03.334Z,28.83
2023-04-11T07:07:29.801Z,20.73
2023-04-11T07:09:56.353Z,18.10
2023-04-11T07:12:22.930Z,22.43
2023-04-11T07:14:49.385Z,22.70
2023-04-11T07:17:15.810Z,21.60
2023-04-11T07:19:42.304Z,23.70
2023-04-11T07:22:08.895Z,25.77
2023-04-11T07:24:35.562Z,22.90
2023-04-11T07:27:02.091Z,28.63
2023-04-11T07:29:28.912Z,20.67
2023-04-11T07:31:55.566Z,26.00
2023-04-11T07:34:22.098Z,27.07
2023-04-11T07:36:50.042Z,28.10
2023-04-11T07:39:16.794Z,19.03
2023-04-11T07:41:43.302Z,18.80
2023-04-11T07:44:09.811Z,24.23
2023-04-11T07:46:36.292Z,25.03
2023-04-11T07:49:02.869Z,16.83
2023-04-11T07:51:29.433Z,24.53
2023-04-11T07:53:56.069Z,16.80
2023-04-11T07:56:22.895Z,18.90
2023-04-11T07:58:49.721Z,19.77
2023-04-11T08:01:20.990Z,21.77
2023-04-11T08:03:47.596Z,20.40
2023-04-11T08:06:14.370Z,27.70
2023-04-11T08:08:41.118Z,23.07
2023-04-11T08:11:07.854Z,17.50
2023-04-11T08:13:34.344Z,19.53
2023-04-11T08:16:01.046Z,15.67
2023-04-11T08:18:27.512Z,25.03
2023-04-11T08:20:53.946Z,19.80
2023-04-11T08:23:21.607Z,20.13
2023-04-11T08:25:48.085Z,16.97
2023-04-11T08:28:15.189Z,26.67
2023-04-11T08:30:42.085Z,16.80
2023-04-11T08:33:10.051Z,23.67
2023-04-11T08:35:37.639Z,20.03
2023-04-11T08:38:04.142Z,16.43
2023-04-11T08:40:30.759Z,17.27
2023-04-11T08:43:01.154Z,15.27
2023-04-11T08:45:27.860Z,16.77
2023-04-11T08:47:55.007Z,13.07
2023-04-11T08:50:21.558Z,17.00
2023-04-11T08:52:49.696Z,18.00
2023-04-11T08:55:16.385Z,15.03
2023-04-11T08:57:43.307Z,14.70
2023-04-11T09:00:19.061Z,20.53
2023-04-11T09:03:03.690Z,22.00
2023-04-11T09:05:32.403Z,15.33
2023-04-11T09:08:04.136Z,16.07
2023-04-11T09:10:30.612Z,15.27
2023-04-11T09:12:57.264Z,17.97
2023-04-11T09:15:29.239Z,14.57
2023-04-11T09:18:00.307Z,15.23
2023-04-11T09:20:30.192Z,18.47
2023-04-11T09:22:58.936Z,13.17
2023-04-11T09:25:25.455Z,21.27
2023-04-11T09:28:08.412Z,15.00
2023-04-11T09:30:35.001Z,18.03
2023-04-11T09:33:18.510Z,14.77
2023-04-11T09:35:47.852Z,14.07
2023-04-11T09:38:14.428Z,20.07
2023-04-11T09:40:44.223Z,15.90
2023-04-11T09:43:10.697Z,12.07
2023-04-11T09:45:47.594Z,17.63
2023-04-11T09:48:21.162Z,15.90
2023-04-11T09:50:51.679Z,16.80
2023-04-11T09:53:18.375Z,11.53
2023-04-11T09:55:44.919Z,20.03
2023-04-11T09:58:12.781Z,13.47
2023-04-11T10:00:41.156Z,17.53
2023-04-11T10:03:07.654Z,15.73
2023-04-11T10:05:34.786Z,12.07
2023-04-11T10:08:13.779Z,15.47
2023-04-11T10:10:43.762Z,14.70
2023-04-11T10:13:35.389Z,14.10
2023-04-11T10:16:13.445Z,17.50
2023-04-11T10:18:52.098Z,12.97
2023-04-11T10:21:27.583Z,15.37
2023-04-11T10:24:17.773Z,21.23
2023-04-11T10:26:49.665Z,17.13
2023-04-11T10:29:28.685Z,14.00
2023-04-11T10:32:11.545Z,14.07
2023-04-11T10:34:40.043Z,12.90
2023-04-11T10:37:10.315Z,15.20
2023-04-11T10:39:52.099Z,14.63
2023-04-11T10:42:33.242Z,13.97
2023-04-11T10:45:18.129Z,13.60
2023-04-11T10:48:05.493Z,15.13
2023-04-11T10:50:32.040Z,16.13
2023-04-11T10:53:00.961Z,15.93
2023-04-11T10:55:29.370Z,12.77
2023-04-11T10:58:22.483Z,14.23
2023-04-11T11:00:52.302Z,14.10
2023-04-11T11:03:21.332Z,14.40
2023-04-11T11:05:56.936Z,14.80
2023-04-11T11:08:49.715Z,15.47
2023-04-11T11:11:16.570Z,12.60
2023-04-11T11:13:53.585Z,12.73
2023-04-11T11:16:25.445Z,12.47
2023-04-11T11:18:54.036Z,13.37
2023-04-11T11:21:27.751Z,12.83
2023-04-11T11:23:55.738Z,13.37
2023-04-11T11:26:22.568Z,11.17
2023-04-11T11:28:49.126Z,11.87
2023-04-11T11:31:15.570Z,15.40
2023-04-11T11:33:42.623Z,14.97
2023-04-11T11:36:09.751Z,13.23
2023-04-11T11:38:36.491Z,13.63
2023-04-11T11:41:05.804Z,11.00
2023-04-11T11:43:36.319Z,13.87
2023-04-11T11:46:14.869Z,12.27
2023-04-11T11:48:59.536Z,12.20
2023-04-11T11:51:26.618Z,19.20
2023-04-11T11:54:08.637Z,16.70
2023-04-11T11:56:36.750Z,14.67
2023-04-11T11:59:05.016Z,13.77
2023-04-11T12:01:36.513Z,12.57
2023-04-11T12:04:06.545Z,12.77
2023-04-11T12:06:33.686Z,11.10
2023-04-11T12:09:10.967Z,10.17
2023-04-11T12:11:38.864Z,14.50
2023-04-11T12:14:05.964Z,12.93
2023-04-11T12:16:32.922Z,10.97
2023-04-11T12:19:02.152Z,15.17
2023-04-11T12:21:29.020Z,15.73
2023-04-11T12:23:55.648Z,10.10
2023-04-11T12:26:23.952Z,15.73
2023-04-11T12:28:51.105Z,10.40
2023-04-11T12:31:18.040Z,11.40
2023-04-11T12:33:44.661Z,10.10
2023-04-11T12:36:11.848Z,16.30
2023-04-11T12:38:38.485Z,10.97
2023-04-11T12:41:30.384Z,13.10
2023-04-11T12:43:52.620Z,9.70
2023-04-11T12:46:19.410Z,11.93
2023-04-11T12:48:45.948Z,10.93
2023-04-11T12:51:12.408Z,10.63
2023-04-11T12:53:38.877Z,11.70
2023-04-11T12:56:05.849Z,12.03
2023-04-11T12:58:33.077Z,11.57
2023-04-11T13:00:59.544Z,14.53
2023-04-11T13:03:27.254Z,11.27
2023-04-11T13:05:54.071Z,15.43
2023-04-11T13:08:20.843Z,10.23
2023-04-11T13:10:47.244Z,9.53
2023-04-11T13:15:43.728Z,10.70
2023-04-11T13:18:10.332Z,13.00
2023-04-11T13:20:37.082Z,10.07
2023-04-11T13:23:03.512Z,10.83
2023-04-11T13:25:29.965Z,14.73
2023-04-11T13:27:56.624Z,13.23
2023-04-11T13:30:23.112Z,10.77
2023-04-11T13:32:49.663Z,11.87
2023-04-11T13:35:16.193Z,15.60
2023-04-11T13:37:42.631Z,9.87
2023-04-11T13:40:11.479Z,10.90
2023-04-11T13:42:37.986Z,11.47
2023-04-11T13:45:04.756Z,15.97
2023-04-11T13:47:31.282Z,8.63
2023-04-11T13:49:57.918Z,10.50
2023-04-11T13:52:24.430Z,9.73
2023-04-11T13:54:51.567Z,12.77
2023-04-11T13:57:18.010Z,11.17
2023-04-11T13:59:44.440Z,12.90
2023-04-11T14:02:11.076Z,10.57
2023-04-11T14:04:37.547Z,15.00
2023-04-11T14:07:04.136Z,11.03
2023-04-11T14:09:30.723Z,11.00
2023-04-11T14:11:57.709Z,13.63
2023-04-11T14:14:24.279Z,9.53
2023-04-11T14:16:51.363Z,15.27
2023-04-11T14:19:17.857Z,15.90
2023-04-11T14:21:44.470Z,14.53
2023-04-11T14:24:11.480Z,15.80
2023-04-11T14:26:37.991Z,20.13
2023-04-11T14:29:04.871Z,16.30
2023-04-11T14:31:31.834Z,23.27
2023-04-11T14:33:58.765Z,21.63
2023-04-11T14:36:26.857Z,13.70
2023-04-11T14:38:53.364Z,11.87
2023-04-11T14:41:19.830Z,14.97
2023-04-11T14:43:46.322Z,13.63
2023-04-11T14:46:12.946Z,17.47
2023-04-11T14:48:39.462Z,17.10
2023-04-11T14:51:06.031Z,15.37
2023-04-11T14:53:32.715Z,11.63
2023-04-11T14:55:59.127Z,15.20
2023-04-11T14:58:25.636Z,14.00
2023-04-11T15:00:52.175Z,13.43
2023-04-11T15:03:18.787Z,10.03
2023-04-11T15:05:45.424Z,10.00
2023-04-11T15:08:11.961Z,11.93
2023-04-11T15:10:38.466Z,14.73
2023-04-11T15:13:05.372Z,16.93
2023-04-11T15:15:31.911Z,14.30
2023-04-11T15:18:24.540Z,10.93
2023-04-11T15:20:52.479Z,10.77
2023-04-11T15:23:20.014Z,14.00
2023-04-11T15:25:56.833Z,12.97
2023-04-11T15:28:24.768Z,10.90
2023-04-11T15:30:53.304Z,13.20
2023-04-11T15:33:22.172Z,12.37
2023-04-11T15:35:48.642Z,13.50
2023-04-11T15:38:16.058Z,13.20
2023-04-11T15:40:42.911Z,14.30
2023-04-11T15:43:09.538Z,10.50
2023-04-11T15:45:39.322Z,10.60
2023-04-11T15:48:06.494Z,11.03
2023-04-11T15:50:33.013Z,10.37
2023-04-11T15:52:59.467Z,10.80
2023-04-11T15:55:25.953Z,13.13
2023-04-11T15:57:52.457Z,12.53
2023-04-11T16:00:22.089Z,11.87
2023-04-11T16:02:49.778Z,13.77
2023-04-11T16:05:17.080Z,13.60
2023-04-11T16:07:43.713Z,13.83
2023-04-11T16:10:10.473Z,11.30
2023-04-11T16:12:37.491Z,10.40
2023-04-11T16:15:07.792Z,17.50
2023-04-11T16:17:34.314Z,16.13
2023-04-11T16:20:00.973Z,14.40
2023-04-11T16:22:27.559Z,16.50
2023-04-11T16:24:56.093Z,15.30
2023-04-11T16:27:22.673Z,15.70
2023-04-11T16:29:49.134Z,14.47
2023-04-11T16:32:15.929Z,17.30
2023-04-11T16:34:42.323Z,16.10
2023-04-11T16:37:08.753Z,17.50
2023-04-11T16:39:35.437Z,18.97
2023-04-11T16:42:02.309Z,13.33
2023-04-11T16:44:28.709Z,15.10
2023-04-11T16:46:55.195Z,14.33
2023-04-11T16:49:22.745Z,15.53
2023-04-11T16:51:49.215Z,18.83
2023-04-11T16:54:16.229Z,18.00
2023-04-11T16:56:43.218Z,17.40
2023-04-11T16:59:12.203Z,12.27
2023-04-11T17:01:38.774Z,17.93
2023-04-11T17:04:05.322Z,18.73
2023-04-11T17:06:32.266Z,13.97
2023-04-11T17:08:58.889Z,15.60
2023-04-11T17:11:25.635Z,16.80
2023-04-11T17:13:54.476Z,26.03
2023-04-11T17:16:21.538Z,14.63
2023-04-11T17:18:48.186Z,13.80
2023-04-11T17:21:14.660Z,16.17
2023-04-11T17:23:43.450Z,21.00
2023-04-11T17:26:10.988Z,12.03
2023-04-11T17:28:38.529Z,15.80
2023-04-11T17:31:13.087Z,15.70
2023-04-11T17:33:39.952Z,11.80
2023-04-11T17:36:07.001Z,15.43
2023-04-11T17:38:33.586Z,17.90
2023-04-11T17:41:11.198Z,11.73
2023-04-11T17:43:41.291Z,12.43
2023-04-11T17:46:08.823Z,13.47
2023-04-11T17:48:35.871Z,14.40
2023-04-11T17:51:04.097Z,15.40
2023-04-11T17:53:30.851Z,16.40
2023-04-11T17:55:57.525Z,18.80
2023-04-11T17:58:23.953Z,20.70
2023-04-11T18:00:56.653Z,15.13
2023-04-11T18:03:25.155Z,15.80
2023-04-11T18:05:52.437Z,20.10
2023-04-11T18:08:18.940Z,16.80
2023-04-11T18:10:45.885Z,16.60
2023-04-11T18:13:12.426Z,15.70
2023-04-11T18:15:38.948Z,14.60
2023-04-11T18:18:09.562Z,13.90
2023-04-11T18:20:36.119Z,14.87
2023-04-11T18:23:03.087Z,15.53
2023-04-11T18:25:30.116Z,17.20
2023-04-11T18:27:56.725Z,17.97
2023-04-11T18:30:23.246Z,10.63
2023-04-11T18:32:52.197Z,15.50
2023-04-11T18:35:19.158Z,15.90
2023-04-11T18:37:45.780Z,15.40
2023-04-11T18:40:14.058Z,12.23
2023-04-11T18:42:48.851Z,16.13
2023-04-11T18:45:21.756Z,23.10
2023-04-11T18:47:48.498Z,15.83
2023-04-11T18:50:15.598Z,15.03
2023-04-11T18:52:43.346Z,21.50
2023-04-11T18:55:10.726Z,15.00
2023-04-11T18:57:38.641Z,20.37
2023-04-11T19:00:18.659Z,12.27
2023-04-11T19:02:46.637Z,12.77
2023-04-11T19:05:14.332Z,12.40
2023-04-11T19:07:42.440Z,14.17
2023-04-11T19:10:10.327Z,17.10
2023-04-11T19:12:37.255Z,13.67
2023-04-11T19:15:06.557Z,17.10
2023-04-11T19:17:35.022Z,11.23
2023-04-11T19:20:02.451Z,17.57
2023-04-11T19:22:28.983Z,16.90
2023-04-11T19:24:55.413Z,14.43
2023-04-11T19:27:23.300Z,15.30
2023-04-11T19:29:49.858Z,11.90
2023-04-11T19:32:17.653Z,15.60
2023-04-11T19:34:44.177Z,21.37
2023-04-11T19:37:10.690Z,16.80
2023-04-11T19:39:38.984Z,14.50
2023-04-11T19:42:07.079Z,12.20
2023-04-11T19:44:33.582Z,18.70
2023-04-11T19:47:00.077Z,19.97
2023-04-11T19:49:26.581Z,18.53
2023-04-11T19:51:53.040Z,16.83
2023-04-11T19:54:19.524Z,16.93
2023-04-11T19:56:49.017Z,14.10
2023-04-11T19:59:16.092Z,19.60
2023-04-11T20:01:42.675Z,13.37
2023-04-11T20:04:09.829Z,16.30
2023-04-11T20:06:36.480Z,16.60
2023-04-11T20:09:04.143Z,15.30
2023-04-11T20:11:32.775Z,17.53
2023-04-11T20:13:59.339Z,14.77
2023-04-11T20:16:26.432Z,17.20
2023-04-11T20:18:53.665Z,14.33
2023-04-11T20:21:20.146Z,15.87
2023-04-11T20:23:46.586Z,15.23
2023-04-11T20:26:13.203Z,15.80
2023-04-11T20:28:39.760Z,14.10
2023-04-11T20:31:07.012Z,15.93
2023-04-11T20:33:33.519Z,13.40
2023-04-11T20:36:00.076Z,18.30
2023-04-11T20:38:27.374Z,20.00
2023-04-11T20:40:53.816Z,13.60
2023-04-11T20:43:20.239Z,13.93
2023-04-11T20:45:46.757Z,14.63
2023-04-11T20:48:13.650Z,16.60
2023-04-11T20:50:41.839Z,28.50
2023-04-11T20:53:08.614Z,12.17
2023-04-11T20:55:35.159Z,19.07
2023-04-11T20:58:01.694Z,12.80
2023-04-11T21:00:28.175Z,16.00
2023-04-11T21:02:54.863Z,15.30
2023-04-11T21:05:22.318Z,13.30
2023-04-11T21:07:48.876Z,12.60
2023-04-11T21:10:15.732Z,17.40
2023-04-11T21:12:43.124Z,14.60
2023-04-11T21:15:10.101Z,17.97
2023-04-11T21:17:37.348Z,15.50
2023-04-11T21:20:17.756Z,15.60
2023-04-11T21:22:44.758Z,12.10
2023-04-11T21:25:11.211Z,14.73
2023-04-11T21:27:37.708Z,13.77
2023-04-11T21:30:04.632Z,17.90
2023-04-11T21:32:31.236Z,12.50
2023-04-11T21:34:57.633Z,14.70
2023-04-11T21:37:24.202Z,13.50
2023-04-11T21:39:50.934Z,18.10
2023-04-11T21:42:17.458Z,15.63
2023-04-11T21:44:43.881Z,16.30
2023-04-11T21:47:10.394Z,13.80
2023-04-11T21:49:36.902Z,12.47
2023-04-11T21:52:03.414Z,13.87
2023-04-11T21:54:29.870Z,13.33
2023-04-11T21:56:57.286Z,14.53
2023-04-11T21:59:23.714Z,17.47
2023-04-11T22:01:50.326Z,13.90
2023-04-11T22:04:17.671Z,20.17
2023-04-11T22:06:47.317Z,13.87
2023-04-11T22:09:20.380Z,15.43
2023-04-11T22:11:46.914Z,12.67
2023-04-11T22:14:16.278Z,15.60
2023-04-11T22:16:49.314Z,17.87
2023-04-11T22:19:19.415Z,13.83
2023-04-11T22:21:50.636Z,20.97
2023-04-11T22:24:17.151Z,15.70
2023-04-11T22:26:48.832Z,15.60
2023-04-11T22:29:18.865Z,13.07
2023-04-11T22:31:46.984Z,14.37
2023-04-11T22:34:14.182Z,13.57
2023-04-11T22:36:40.667Z,11.47
2023-04-11T22:39:08.036Z,14.50
2023-04-11T22:41:35.895Z,14.70
2023-04-11T22:44:02.966Z,14.57
2023-04-11T22:46:31.629Z,17.73
2023-04-11T22:48:58.100Z,15.37
2023-04-11T22:51:25.001Z,13.17
2023-04-11T22:53:51.441Z,12.63
2023-04-11T22:56:18.033Z,15.40
2023-04-11T22:58:45.778Z,15.00
2023-04-11T23:01:13.919Z,15.47
2023-04-11T23:03:41.380Z,15.43
2023-04-11T23:06:08.235Z,16.60
2023-04-11T23:08:34.756Z,12.47
2023-04-11T23:11:01.290Z,11.57
2023-04-11T23:13:27.711Z,16.30
2023-04-11T23:15:54.839Z,13.00
2023-04-11T23:18:21.424Z,14.30
2023-04-11T23:20:49.411Z,12.60
2023-04-11T23:23:16.564Z,14.27
2023-04-11T23:25:43.112Z,20.43
2023-04-11T23:28:09.728Z,16.50
2023-04-11T23:30:36.364Z,16.03
2023-04-11T23:33:04.266Z,16.60
2023-04-11T23:35:31.699Z,16.20
2023-04-11T23:37:59.969Z,18.40
2023-04-11T23:40:26.620Z,13.80
2023-04-11T23:42:53.351Z,20.33
2023-04-11T23:45:22.437Z,9.50
2023-04-11T23:47:50.342Z,15.67
2023-04-11T23:50:17.741Z,14.60
2023-04-11T23:52:44.857Z,18.40
2023-04-11T23:55:13.111Z,12.03
2023-04-11T23:57:39.680Z,18.43
